Gulf Breeze, FL (32561)

8:39 PM CDT on July 27, 2016 (GMT -0500)
Soundside | | Change Station

Elev 12 ft 30.38 °N, 87.02 °W | Updated 3 seconds ago

Partly Cloudy
Partly Cloudy
83.6 °F
Feels Like 93 °F
N
4.9
Wind Variable Wind from West
Gusts 7.0 mph

Today
High -- | Low -- °F
--% Chance of Precip.
Yesterday
High -- | Low -- °F
Precip. -- in
Pressure 30.04 in
Visibility 10.0 miles
Clouds Few 3000 ft
Heat Index 93 °F
Dew Point 76 °F
Humidity 79%
Rainfall 0.00 in
Snow Depth Not available.
6:03 AM 7:45 PM
Last Quarter, 37% visible
METAR KPNS 280053Z COR 29008KT 10SM FEW030 29/23 A3004 RMK AO2 SLP173 T02890233
Pressure 30.04 in
Visibility 10.0 miles
Clouds Few 3000 ft
Heat Index 93 °F
Dew Point 76 °F
Humidity 79%
Rainfall 0.00 in
Snow Depth Not available.
6:03 AM 7:45 PM
Last Quarter, 37% visible
METAR KPNS 280053Z COR 29008KT 10SM FEW030 29/23 A3004 RMK AO2 SLP173 T02890233

10-Day Weather Forecast

Almanac

Astronomy

Jul. 27, 2016 Rise Set
Actual Time
Civil Twilight
Nautical Twilight
Astronomical Twilight
Moon
Length of Visible Light
Length of Day
Tomorrow will be .
, % of the Moon is Illuminated

Today's Extremes

State Highs State Lows

Community

WunderPhotos

Upload Photos

1,927,998 photos uploaded!

WunderBlog® & News

Nearby

Air Quality

  Air Quality AQ Index Pollutant
Not available.

Snow Depth

Station Depth Elevation

Earthquake Activity

City Distance Mag. Time & Date
Minimum magnitude displayed is 2.5.

Coastal Water Temperatures

Place Temperature

Stations

Nearby Weather Stations

Station Location Temp. Windchill Dew Point Humidity Wind Precip. Elev Updated Type
                   

Watches & Warnings

There are currently no watches in effect.